DHK643 LIMC-EDDP
Flight info
| Callsign | DHK643 |
|---|---|
| Flight time | 1h 14m |
| Altitude | 36000 |
| Route | PEPAG DCT ABESI N851 UTAVO DCT ROLSA DCT LOKTA DCT ETAGO DCT IBAGA T435 PIBAD T954 GOXLI GOXLI1V |
| Aircraft | B763/H-SDE3FGHIM3RWXY/LB1 |
Departure
| Time | 2026-05-05 12:25 |
|---|---|
| Airport | Milan Malpensa International Airport (LIMC) |
Arrival
| Time | 2026-05-05 13:40 |
|---|---|
| Airport | Leipzig/Halle Airport (EDDP) |
| Time | Latitude | Longitude | Altitude | Speed | Heading |
|---|---|---|---|---|---|
| 2026-05-05 11:57 | 45.61693 | 8.71951 | 782 ft | 0 kts | 259° |
| 2026-05-05 12:01 | 45.61693 | 8.71950 | 782 ft | 0 kts | 259° |
| 2026-05-05 12:04 | 45.61693 | 8.71949 | 782 ft | 0 kts | 259° |
| 2026-05-05 12:08 | 45.61695 | 8.71961 | 782 ft | 2 kts | 259° |
| 2026-05-05 12:08 | 45.61698 | 8.71983 | 782 ft | 2 kts | 259° |
| 2026-05-05 12:08 | 45.61701 | 8.72006 | 782 ft | 3 kts | 262° |
| 2026-05-05 12:08 | 45.61698 | 8.72034 | 782 ft | 3 kts | 296° |
| 2026-05-05 12:09 | 45.61688 | 8.72054 | 782 ft | 2 kts | 308° |
| 2026-05-05 12:09 | 45.61677 | 8.72074 | 782 ft | 3 kts | 317° |
| 2026-05-05 12:09 | 45.61662 | 8.72088 | 782 ft | 2 kts | 333° |
| 2026-05-05 12:09 | 45.61645 | 8.72099 | 782 ft | 3 kts | 339° |
| 2026-05-05 12:10 | 45.61640 | 8.72102 | 782 ft | 0 kts | 349° |
| 2026-05-05 12:10 | 45.61644 | 8.72101 | 782 ft | 1 kts | 349° |
| 2026-05-05 12:10 | 45.61651 | 8.72099 | 782 ft | 1 kts | 349° |
| 2026-05-05 12:10 | 45.61661 | 8.72096 | 782 ft | 2 kts | 349° |
| 2026-05-05 12:11 | 45.61674 | 8.72093 | 782 ft | 2 kts | 349° |
| 2026-05-05 12:11 | 45.61683 | 8.72090 | 782 ft | 0 kts | 349° |
| 2026-05-05 12:12 | 45.61684 | 8.72090 | 782 ft | 0 kts | 349° |
| 2026-05-05 12:12 | 45.61695 | 8.72087 | 782 ft | 3 kts | 349° |
| 2026-05-05 12:12 | 45.61724 | 8.72079 | 782 ft | 5 kts | 349° |
| 2026-05-05 12:13 | 45.61770 | 8.72067 | 782 ft | 8 kts | 349° |
| 2026-05-05 12:13 | 45.61821 | 8.72071 | 782 ft | 6 kts | 42° |
| 2026-05-05 12:13 | 45.61839 | 8.72138 | 782 ft | 9 kts | 79° |
| 2026-05-05 12:13 | 45.61852 | 8.72236 | 782 ft | 12 kts | 79° |
| 2026-05-05 12:14 | 45.61892 | 8.72336 | 782 ft | 11 kts | 14° |
| 2026-05-05 12:14 | 45.61967 | 8.72320 | 782 ft | 13 kts | 349° |
| 2026-05-05 12:14 | 45.62065 | 8.72293 | 782 ft | 16 kts | 349° |
| 2026-05-05 12:14 | 45.62175 | 8.72265 | 782 ft | 14 kts | 359° |
| 2026-05-05 12:15 | 45.62225 | 8.72344 | 782 ft | 12 kts | 77° |
| 2026-05-05 12:15 | 45.62244 | 8.72482 | 782 ft | 16 kts | 79° |
| 2026-05-05 12:15 | 45.62268 | 8.72657 | 782 ft | 20 kts | 79° |
| 2026-05-05 12:15 | 45.62297 | 8.72865 | 782 ft | 22 kts | 79° |
| 2026-05-05 12:16 | 45.62280 | 8.73011 | 782 ft | 15 kts | 149° |
| 2026-05-05 12:16 | 45.62166 | 8.73051 | 782 ft | 19 kts | 169° |
| 2026-05-05 12:16 | 45.62025 | 8.73090 | 782 ft | 23 kts | 169° |
| 2026-05-05 12:16 | 45.61858 | 8.73136 | 782 ft | 25 kts | 169° |
| 2026-05-05 12:17 | 45.61736 | 8.73211 | 782 ft | 16 kts | 125° |
| 2026-05-05 12:17 | 45.61692 | 8.73306 | 782 ft | 3 kts | 123° |
| 2026-05-05 12:17 | 45.61680 | 8.73330 | 782 ft | 0 kts | 123° |
| 2026-05-05 12:18 | 45.61678 | 8.73335 | 782 ft | 2 kts | 123° |
| 2026-05-05 12:19 | 45.61661 | 8.73370 | 782 ft | 7 kts | 123° |
| 2026-05-05 12:19 | 45.61627 | 8.73443 | 782 ft | 11 kts | 123° |
| 2026-05-05 12:19 | 45.61591 | 8.73533 | 782 ft | 7 kts | 109° |
| 2026-05-05 12:19 | 45.61586 | 8.73584 | 782 ft | 3 kts | 85° |
| 2026-05-05 12:20 | 45.61586 | 8.73585 | 782 ft | 0 kts | 85° |
| 2026-05-05 12:21 | 45.61586 | 8.73586 | 782 ft | 0 kts | 85° |
| 2026-05-05 12:22 | 45.61586 | 8.73591 | 782 ft | 2 kts | 85° |
| 2026-05-05 12:22 | 45.61589 | 8.73634 | 782 ft | 6 kts | 82° |
| 2026-05-05 12:22 | 45.61610 | 8.73710 | 782 ft | 9 kts | 43° |
| 2026-05-05 12:22 | 45.61665 | 8.73718 | 782 ft | 7 kts | 348° |
| 2026-05-05 12:23 | 45.61680 | 8.73713 | 782 ft | 0 kts | 349° |
| 2026-05-05 12:24 | 45.61681 | 8.73713 | 782 ft | 0 kts | 349° |
| 2026-05-05 12:24 | 45.61697 | 8.73709 | 782 ft | 14 kts | 349° |
| 2026-05-05 12:24 | 45.61947 | 8.73640 | 782 ft | 65 kts | 349° |
| 2026-05-05 12:24 | 45.62648 | 8.73446 | 784 ft | 137 kts | 349° |
| 2026-05-05 12:25 | 45.63644 | 8.73172 | 1240 ft | 152 kts | 349° |
| 2026-05-05 12:25 | 45.64745 | 8.72870 | 1913 ft | 171 kts | 348° |
| 2026-05-05 12:25 | 45.66007 | 8.72543 | 2564 ft | 194 kts | 350° |
| 2026-05-05 12:25 | 45.67410 | 8.72197 | 3235 ft | 213 kts | 351° |
| 2026-05-05 12:26 | 45.68872 | 8.71830 | 3860 ft | 215 kts | 351° |
| 2026-05-05 12:26 | 45.70332 | 8.71478 | 4455 ft | 210 kts | 351° |
| 2026-05-05 12:26 | 45.71760 | 8.71185 | 4989 ft | 206 kts | 353° |
| 2026-05-05 12:26 | 45.73195 | 8.70946 | 5543 ft | 214 kts | 356° |
| 2026-05-05 12:27 | 45.74680 | 8.71248 | 6144 ft | 219 kts | 21° |
| 2026-05-05 12:27 | 45.75812 | 8.72684 | 6804 ft | 221 kts | 57° |
| 2026-05-05 12:27 | 45.76164 | 8.74774 | 7458 ft | 221 kts | 91° |
| 2026-05-05 12:27 | 45.75817 | 8.76929 | 8131 ft | 226 kts | 109° |
| 2026-05-05 12:28 | 45.75250 | 8.79066 | 8727 ft | 237 kts | 113° |
| 2026-05-05 12:28 | 45.74535 | 8.81237 | 9390 ft | 245 kts | 120° |
| 2026-05-05 12:28 | 45.73630 | 8.83364 | 10058 ft | 252 kts | 124° |
| 2026-05-05 12:28 | 45.72642 | 8.85487 | 10709 ft | 260 kts | 126° |
| 2026-05-05 12:29 | 45.71605 | 8.87636 | 11323 ft | 270 kts | 127° |
| 2026-05-05 12:29 | 45.70512 | 8.89886 | 12010 ft | 278 kts | 128° |
| 2026-05-05 12:29 | 45.69422 | 8.92215 | 12697 ft | 286 kts | 123° |
| 2026-05-05 12:29 | 45.68762 | 8.94892 | 13422 ft | 295 kts | 100° |
| 2026-05-05 12:30 | 45.68996 | 8.97837 | 14181 ft | 300 kts | 72° |
| 2026-05-05 12:30 | 45.70105 | 9.00322 | 14926 ft | 301 kts | 44° |
| 2026-05-05 12:30 | 45.71868 | 9.01878 | 15684 ft | 295 kts | 18° |
| 2026-05-05 12:30 | 45.73846 | 9.02580 | 16299 ft | 297 kts | 6° |
| 2026-05-05 12:31 | 45.75910 | 9.02935 | 16821 ft | 304 kts | 2° |
| 2026-05-05 12:31 | 45.78077 | 9.03164 | 17345 ft | 318 kts | 0° |
| 2026-05-05 12:31 | 45.80359 | 9.03347 | 17865 ft | 339 kts | 359° |
| 2026-05-05 12:31 | 45.82779 | 9.03514 | 18381 ft | 363 kts | 359° |
| 2026-05-05 12:32 | 45.85393 | 9.03677 | 18900 ft | 388 kts | 359° |
| 2026-05-05 12:32 | 45.88184 | 9.03838 | 19419 ft | 413 kts | 359° |
| 2026-05-05 12:32 | 45.91142 | 9.03997 | 19936 ft | 434 kts | 359° |
| 2026-05-05 12:32 | 45.94215 | 9.04153 | 20446 ft | 453 kts | 359° |
| 2026-05-05 12:33 | 45.97398 | 9.04303 | 20953 ft | 469 kts | 359° |
| 2026-05-05 12:33 | 46.00694 | 9.04397 | 21708 ft | 475 kts | 358° |
| 2026-05-05 12:33 | 46.04021 | 9.04450 | 22591 ft | 477 kts | 359° |
| 2026-05-05 12:33 | 46.07323 | 9.04477 | 23481 ft | 478 kts | 358° |
| 2026-05-05 12:34 | 46.10677 | 9.04444 | 24195 ft | 483 kts | 356° |
| 2026-05-05 12:34 | 46.14080 | 9.04262 | 24754 ft | 489 kts | 355° |
| 2026-05-05 12:34 | 46.16352 | 9.04084 | 25101 ft | 493 kts | 354° |
| 2026-05-05 12:34 | 46.20935 | 9.03650 | 25774 ft | 501 kts | 354° |
| 2026-05-05 12:35 | 46.24417 | 9.03280 | 26276 ft | 505 kts | 353° |
| 2026-05-05 12:35 | 46.27933 | 9.02862 | 26777 ft | 508 kts | 353° |
| 2026-05-05 12:35 | 46.31467 | 9.02407 | 27279 ft | 509 kts | 353° |
| 2026-05-05 12:35 | 46.34994 | 9.01938 | 27779 ft | 510 kts | 353° |
| 2026-05-05 12:36 | 46.38526 | 9.01488 | 28278 ft | 510 kts | 353° |
| 2026-05-05 12:36 | 46.42070 | 9.01052 | 28780 ft | 509 kts | 353° |
| 2026-05-05 12:36 | 46.45556 | 9.00630 | 29274 ft | 508 kts | 353° |
| 2026-05-05 12:36 | 46.49080 | 9.00206 | 29774 ft | 506 kts | 353° |
| 2026-05-05 12:37 | 46.52608 | 8.99784 | 30276 ft | 505 kts | 353° |
| 2026-05-05 12:37 | 46.56055 | 8.99361 | 30768 ft | 503 kts | 353° |
| 2026-05-05 12:37 | 46.59562 | 8.98909 | 31270 ft | 502 kts | 352° |
| 2026-05-05 12:37 | 46.61867 | 8.98611 | 31601 ft | 501 kts | 352° |
| 2026-05-05 12:38 | 46.65339 | 8.98165 | 32101 ft | 499 kts | 352° |
| 2026-05-05 12:38 | 46.69918 | 8.97584 | 32763 ft | 496 kts | 352° |
| 2026-05-05 12:38 | 46.72204 | 8.97283 | 33095 ft | 495 kts | 351° |
| 2026-05-05 12:38 | 46.75628 | 8.96827 | 33593 ft | 493 kts | 351° |
| 2026-05-05 12:39 | 46.80157 | 8.96229 | 34255 ft | 491 kts | 351° |
| 2026-05-05 12:39 | 46.83560 | 8.95785 | 34755 ft | 489 kts | 351° |
| 2026-05-05 12:39 | 46.85856 | 8.95486 | 35094 ft | 487 kts | 351° |
| 2026-05-05 12:39 | 46.89169 | 8.95055 | 35584 ft | 485 kts | 351° |
| 2026-05-05 12:40 | 46.92539 | 8.94612 | 35887 ft | 487 kts | 351° |
| 2026-05-05 12:40 | 46.95948 | 8.94155 | 35932 ft | 494 kts | 351° |
| 2026-05-05 12:40 | 47.02853 | 8.93199 | 35892 ft | 503 kts | 351° |
| 2026-05-05 12:41 | 47.09682 | 8.92231 | 35882 ft | 505 kts | 351° |
| 2026-05-05 12:41 | 47.16849 | 8.91117 | 35881 ft | 506 kts | 351° |
| 2026-05-05 12:42 | 47.23861 | 8.90003 | 35881 ft | 508 kts | 354° |
| 2026-05-05 12:42 | 47.30902 | 8.90560 | 35909 ft | 512 kts | 6° |
| 2026-05-05 12:43 | 47.37962 | 8.92357 | 35894 ft | 515 kts | 9° |
| 2026-05-05 12:43 | 47.44965 | 8.94515 | 35878 ft | 515 kts | 11° |
| 2026-05-05 12:44 | 47.51986 | 8.96782 | 35870 ft | 515 kts | 11° |
| 2026-05-05 12:44 | 47.58967 | 8.99059 | 35866 ft | 515 kts | 11° |
| 2026-05-05 12:45 | 47.65977 | 9.01353 | 35864 ft | 515 kts | 11° |
| 2026-05-05 12:45 | 47.72959 | 9.03665 | 35857 ft | 515 kts | 12° |
| 2026-05-05 12:46 | 47.79923 | 9.06068 | 35854 ft | 515 kts | 12° |
| 2026-05-05 12:46 | 47.86896 | 9.08436 | 35853 ft | 515 kts | 11° |
| 2026-05-05 12:47 | 47.93899 | 9.10755 | 35852 ft | 514 kts | 11° |
| 2026-05-05 12:47 | 48.00909 | 9.13081 | 35851 ft | 514 kts | 12° |
| 2026-05-05 12:48 | 48.07852 | 9.15446 | 35851 ft | 514 kts | 12° |
| 2026-05-05 12:48 | 48.14806 | 9.18041 | 35868 ft | 514 kts | 15° |
| 2026-05-05 12:49 | 48.21622 | 9.21073 | 35857 ft | 514 kts | 17° |
| 2026-05-05 12:49 | 48.28454 | 9.24318 | 35846 ft | 514 kts | 17° |
| 2026-05-05 12:50 | 48.35277 | 9.27624 | 35845 ft | 514 kts | 17° |
| 2026-05-05 12:50 | 48.42043 | 9.30962 | 35844 ft | 514 kts | 18° |
| 2026-05-05 12:51 | 48.48869 | 9.34298 | 35844 ft | 514 kts | 17° |
| 2026-05-05 12:51 | 48.55662 | 9.37636 | 35844 ft | 514 kts | 18° |
| 2026-05-05 12:52 | 48.62465 | 9.40973 | 35844 ft | 514 kts | 17° |
| 2026-05-05 12:52 | 48.69190 | 9.44532 | 35851 ft | 515 kts | 24° |
| 2026-05-05 12:53 | 48.75498 | 9.49739 | 35873 ft | 514 kts | 32° |
| 2026-05-05 12:53 | 48.81486 | 9.55611 | 35857 ft | 515 kts | 34° |
| 2026-05-05 12:54 | 48.90362 | 9.64851 | 35829 ft | 515 kts | 36° |
| 2026-05-05 12:55 | 48.96239 | 9.71146 | 35823 ft | 515 kts | 36° |
| 2026-05-05 12:55 | 49.02060 | 9.77435 | 35819 ft | 516 kts | 36° |
| 2026-05-05 12:56 | 49.07957 | 9.83720 | 35816 ft | 516 kts | 35° |
| 2026-05-05 12:56 | 49.13824 | 9.89948 | 35816 ft | 516 kts | 35° |
| 2026-05-05 12:57 | 49.19732 | 9.96238 | 35816 ft | 516 kts | 35° |
| 2026-05-05 12:57 | 49.25593 | 10.02511 | 35812 ft | 516 kts | 35° |
| 2026-05-05 12:58 | 49.31533 | 10.08813 | 35811 ft | 516 kts | 34° |
| 2026-05-05 12:58 | 49.37396 | 10.15084 | 35808 ft | 517 kts | 35° |
| 2026-05-05 12:59 | 49.43271 | 10.21467 | 35798 ft | 517 kts | 36° |
| 2026-05-05 12:59 | 49.49132 | 10.27875 | 35786 ft | 517 kts | 36° |
| 2026-05-05 13:00 | 49.57943 | 10.37543 | 35782 ft | 517 kts | 36° |
| 2026-05-05 13:01 | 49.69639 | 10.50429 | 35792 ft | 517 kts | 34° |
| 2026-05-05 13:01 | 49.75743 | 10.56274 | 35821 ft | 517 kts | 29° |
| 2026-05-05 13:02 | 49.82073 | 10.61643 | 35808 ft | 518 kts | 27° |
| 2026-05-05 13:02 | 49.88412 | 10.66820 | 35665 ft | 514 kts | 27° |
| 2026-05-05 13:03 | 49.91586 | 10.69388 | 35256 ft | 510 kts | 27° |
| 2026-05-05 13:03 | 49.94700 | 10.71901 | 34788 ft | 494 kts | 27° |
| 2026-05-05 13:03 | 49.97712 | 10.74335 | 34310 ft | 480 kts | 27° |
| 2026-05-05 13:03 | 50.00645 | 10.76706 | 33820 ft | 470 kts | 27° |
| 2026-05-05 13:04 | 50.03507 | 10.78988 | 33327 ft | 462 kts | 25° |
| 2026-05-05 13:04 | 50.06396 | 10.81134 | 32844 ft | 455 kts | 23° |
| 2026-05-05 13:04 | 50.09273 | 10.83181 | 32348 ft | 451 kts | 22° |
| 2026-05-05 13:04 | 50.12098 | 10.85128 | 31853 ft | 447 kts | 21° |
| 2026-05-05 13:05 | 50.14951 | 10.87041 | 31350 ft | 443 kts | 21° |
| 2026-05-05 13:05 | 50.17787 | 10.88917 | 30847 ft | 439 kts | 21° |
| 2026-05-05 13:05 | 50.20570 | 10.90746 | 30350 ft | 435 kts | 21° |
| 2026-05-05 13:05 | 50.23358 | 10.92600 | 29846 ft | 431 kts | 21° |
| 2026-05-05 13:06 | 50.26076 | 10.94430 | 29353 ft | 428 kts | 21° |
| 2026-05-05 13:06 | 50.28827 | 10.96291 | 28846 ft | 424 kts | 22° |
| 2026-05-05 13:06 | 50.31497 | 10.98098 | 28353 ft | 420 kts | 22° |
| 2026-05-05 13:06 | 50.34175 | 10.99910 | 27851 ft | 416 kts | 22° |
| 2026-05-05 13:07 | 50.36793 | 11.01709 | 27354 ft | 412 kts | 22° |
| 2026-05-05 13:07 | 50.39427 | 11.03534 | 26848 ft | 408 kts | 22° |
| 2026-05-05 13:07 | 50.42000 | 11.05340 | 26349 ft | 404 kts | 23° |
| 2026-05-05 13:07 | 50.44532 | 11.07146 | 25851 ft | 400 kts | 24° |
| 2026-05-05 13:08 | 50.47050 | 11.08951 | 25350 ft | 397 kts | 24° |
| 2026-05-05 13:08 | 50.49539 | 11.10735 | 24851 ft | 393 kts | 24° |
| 2026-05-05 13:08 | 50.52032 | 11.12516 | 24346 ft | 389 kts | 24° |
| 2026-05-05 13:08 | 50.54460 | 11.14244 | 23850 ft | 385 kts | 24° |
| 2026-05-05 13:09 | 50.56900 | 11.15991 | 23346 ft | 381 kts | 24° |
| 2026-05-05 13:09 | 50.59307 | 11.17739 | 22843 ft | 378 kts | 24° |
| 2026-05-05 13:09 | 50.61662 | 11.19431 | 22348 ft | 374 kts | 24° |
| 2026-05-05 13:09 | 50.64033 | 11.21126 | 21845 ft | 371 kts | 24° |
| 2026-05-05 13:10 | 50.66380 | 11.22800 | 21344 ft | 368 kts | 24° |
| 2026-05-05 13:10 | 50.68685 | 11.24447 | 20848 ft | 365 kts | 24° |
| 2026-05-05 13:10 | 50.70999 | 11.26104 | 20345 ft | 363 kts | 24° |
| 2026-05-05 13:10 | 50.73198 | 11.28051 | 19850 ft | 360 kts | 35° |
| 2026-05-05 13:11 | 50.75089 | 11.30600 | 19423 ft | 355 kts | 44° |
| 2026-05-05 13:11 | 50.76787 | 11.33384 | 19011 ft | 353 kts | 48° |
| 2026-05-05 13:11 | 50.78402 | 11.36260 | 18594 ft | 350 kts | 50° |
| 2026-05-05 13:11 | 50.79983 | 11.39179 | 18187 ft | 348 kts | 50° |
| 2026-05-05 13:12 | 50.81539 | 11.42101 | 17808 ft | 346 kts | 51° |
| 2026-05-05 13:12 | 50.83080 | 11.45017 | 17431 ft | 344 kts | 51° |
| 2026-05-05 13:12 | 50.84611 | 11.47925 | 17053 ft | 342 kts | 51° |
| 2026-05-05 13:12 | 50.86113 | 11.50786 | 16681 ft | 340 kts | 51° |
| 2026-05-05 13:13 | 50.87629 | 11.53678 | 16304 ft | 339 kts | 51° |
| 2026-05-05 13:13 | 50.89115 | 11.56521 | 15931 ft | 337 kts | 51° |
| 2026-05-05 13:13 | 50.90608 | 11.59380 | 15554 ft | 335 kts | 51° |
| 2026-05-05 13:13 | 50.92087 | 11.62218 | 15179 ft | 333 kts | 51° |
| 2026-05-05 13:14 | 50.93545 | 11.65021 | 14806 ft | 331 kts | 51° |
| 2026-05-05 13:14 | 50.95008 | 11.67839 | 14429 ft | 329 kts | 51° |
| 2026-05-05 13:14 | 50.96459 | 11.70638 | 14052 ft | 326 kts | 51° |
| 2026-05-05 13:14 | 50.97884 | 11.73390 | 13681 ft | 324 kts | 51° |
| 2026-05-05 13:15 | 50.99314 | 11.76156 | 13301 ft | 322 kts | 51° |
| 2026-05-05 13:15 | 51.00733 | 11.78906 | 12925 ft | 320 kts | 51° |
| 2026-05-05 13:15 | 51.02140 | 11.81637 | 12549 ft | 318 kts | 51° |
| 2026-05-05 13:15 | 51.03525 | 11.84327 | 12179 ft | 317 kts | 51° |
| 2026-05-05 13:16 | 51.04919 | 11.87040 | 11803 ft | 315 kts | 51° |
| 2026-05-05 13:16 | 51.06304 | 11.89740 | 11426 ft | 313 kts | 51° |
| 2026-05-05 13:16 | 51.07657 | 11.92386 | 11091 ft | 309 kts | 51° |
| 2026-05-05 13:16 | 51.09009 | 11.95041 | 10837 ft | 305 kts | 51° |
| 2026-05-05 13:17 | 51.10329 | 11.97640 | 10589 ft | 304 kts | 51° |
| 2026-05-05 13:17 | 51.11657 | 12.00263 | 10338 ft | 303 kts | 51° |
| 2026-05-05 13:17 | 51.12982 | 12.02891 | 10087 ft | 302 kts | 51° |
| 2026-05-05 13:17 | 51.14282 | 12.05478 | 9839 ft | 301 kts | 51° |
| 2026-05-05 13:18 | 51.15589 | 12.08088 | 9588 ft | 300 kts | 51° |
| 2026-05-05 13:18 | 51.16888 | 12.10688 | 9337 ft | 299 kts | 51° |
| 2026-05-05 13:18 | 51.18179 | 12.13280 | 9086 ft | 297 kts | 51° |
| 2026-05-05 13:18 | 51.19446 | 12.15827 | 8838 ft | 295 kts | 51° |
| 2026-05-05 13:19 | 51.20723 | 12.18399 | 8587 ft | 294 kts | 51° |
| 2026-05-05 13:19 | 51.22002 | 12.20958 | 8335 ft | 292 kts | 51° |
| 2026-05-05 13:19 | 51.23129 | 12.23603 | 8082 ft | 291 kts | 62° |
| 2026-05-05 13:19 | 51.23873 | 12.26581 | 7944 ft | 287 kts | 72° |
| 2026-05-05 13:20 | 51.24389 | 12.29671 | 7865 ft | 286 kts | 77° |
| 2026-05-05 13:20 | 51.24828 | 12.32719 | 7844 ft | 285 kts | 75° |
| 2026-05-05 13:20 | 51.25421 | 12.35776 | 7684 ft | 290 kts | 71° |
| 2026-05-05 13:20 | 51.26098 | 12.38797 | 7438 ft | 290 kts | 69° |
| 2026-05-05 13:21 | 51.26817 | 12.41801 | 7189 ft | 288 kts | 69° |
| 2026-05-05 13:21 | 51.27546 | 12.44778 | 6935 ft | 286 kts | 68° |
| 2026-05-05 13:21 | 51.28264 | 12.47691 | 6687 ft | 283 kts | 68° |
| 2026-05-05 13:21 | 51.28986 | 12.50620 | 6435 ft | 282 kts | 68° |
| 2026-05-05 13:22 | 51.29706 | 12.53538 | 6188 ft | 280 kts | 68° |
| 2026-05-05 13:22 | 51.30420 | 12.56440 | 5933 ft | 279 kts | 68° |
| 2026-05-05 13:22 | 51.31121 | 12.59288 | 5688 ft | 277 kts | 68° |
| 2026-05-05 13:22 | 51.31824 | 12.62161 | 5432 ft | 275 kts | 68° |
| 2026-05-05 13:23 | 51.32523 | 12.65023 | 5185 ft | 275 kts | 68° |
| 2026-05-05 13:23 | 51.33214 | 12.67823 | 4933 ft | 273 kts | 66° |
| 2026-05-05 13:23 | 51.34220 | 12.70369 | 4662 ft | 270 kts | 45° |
| 2026-05-05 13:23 | 51.35812 | 12.71884 | 4432 ft | 264 kts | 17° |
| 2026-05-05 13:24 | 51.37553 | 12.71929 | 4289 ft | 243 kts | 348° |
| 2026-05-05 13:24 | 51.38945 | 12.70613 | 4124 ft | 227 kts | 317° |
| 2026-05-05 13:24 | 51.39877 | 12.68691 | 3972 ft | 213 kts | 305° |
| 2026-05-05 13:24 | 51.40661 | 12.66758 | 3792 ft | 204 kts | 303° |
| 2026-05-05 13:25 | 51.41401 | 12.64857 | 3606 ft | 196 kts | 302° |
| 2026-05-05 13:25 | 51.42005 | 12.62958 | 3418 ft | 190 kts | 294° |
| 2026-05-05 13:25 | 51.42406 | 12.60936 | 3241 ft | 189 kts | 285° |
| 2026-05-05 13:25 | 51.42616 | 12.58883 | 3069 ft | 188 kts | 278° |
| 2026-05-05 13:26 | 51.42694 | 12.56781 | 2891 ft | 188 kts | 273° |
| 2026-05-05 13:26 | 51.42687 | 12.54685 | 2722 ft | 188 kts | 270° |
| 2026-05-05 13:26 | 51.42631 | 12.52614 | 2543 ft | 188 kts | 269° |
| 2026-05-05 13:26 | 51.42550 | 12.50523 | 2373 ft | 187 kts | 268° |
| 2026-05-05 13:27 | 51.42457 | 12.48445 | 2233 ft | 185 kts | 268° |
| 2026-05-05 13:27 | 51.42362 | 12.46411 | 2126 ft | 185 kts | 268° |
| 2026-05-05 13:27 | 51.42265 | 12.44344 | 2026 ft | 185 kts | 267° |
| 2026-05-05 13:27 | 51.42169 | 12.42279 | 1942 ft | 185 kts | 267° |
| 2026-05-05 13:28 | 51.42074 | 12.40212 | 1878 ft | 189 kts | 267° |
| 2026-05-05 13:28 | 51.41979 | 12.38120 | 2102 ft | 193 kts | 267° |
| 2026-05-05 13:28 | 51.41879 | 12.35940 | 2543 ft | 201 kts | 267° |
| 2026-05-05 13:28 | 51.41811 | 12.34424 | 2866 ft | 210 kts | 267° |
| 2026-05-05 13:29 | 51.41668 | 12.31309 | 3577 ft | 208 kts | 267° |
| 2026-05-05 13:29 | 51.41541 | 12.28975 | 3984 ft | 222 kts | 265° |
| 2026-05-05 13:29 | 51.41015 | 12.26552 | 3922 ft | 238 kts | 238° |
| 2026-05-05 13:29 | 51.39778 | 12.24930 | 3962 ft | 230 kts | 204° |
| 2026-05-05 13:30 | 51.38738 | 12.24591 | 3996 ft | 232 kts | 182° |
| 2026-05-05 13:30 | 51.37181 | 12.25289 | 3998 ft | 235 kts | 149° |
| 2026-05-05 13:30 | 51.36115 | 12.27194 | 3995 ft | 233 kts | 116° |
| 2026-05-05 13:30 | 51.35691 | 12.29697 | 4020 ft | 232 kts | 98° |
| 2026-05-05 13:31 | 51.35513 | 12.32273 | 4013 ft | 233 kts | 94° |
| 2026-05-05 13:31 | 51.35401 | 12.34824 | 3999 ft | 230 kts | 92° |
| 2026-05-05 13:31 | 51.35306 | 12.37343 | 3995 ft | 228 kts | 92° |
| 2026-05-05 13:31 | 51.35215 | 12.39872 | 3995 ft | 227 kts | 92° |
| 2026-05-05 13:32 | 51.35129 | 12.42402 | 4006 ft | 227 kts | 91° |
| 2026-05-05 13:32 | 51.35183 | 12.44933 | 4002 ft | 227 kts | 85° |
| 2026-05-05 13:32 | 51.35329 | 12.47414 | 3994 ft | 226 kts | 83° |
| 2026-05-05 13:32 | 51.35501 | 12.49921 | 3999 ft | 225 kts | 82° |
| 2026-05-05 13:33 | 51.35680 | 12.52420 | 4002 ft | 226 kts | 82° |
| 2026-05-05 13:33 | 51.35865 | 12.54889 | 4000 ft | 226 kts | 81° |
| 2026-05-05 13:33 | 51.36338 | 12.57264 | 3913 ft | 222 kts | 58° |
| 2026-05-05 13:33 | 51.37447 | 12.58773 | 3814 ft | 205 kts | 25° |
| 2026-05-05 13:34 | 51.38826 | 12.59195 | 3694 ft | 204 kts | 4° |
| 2026-05-05 13:34 | 51.40238 | 12.59161 | 3500 ft | 201 kts | 351° |
| 2026-05-05 13:34 | 51.41403 | 12.58094 | 3294 ft | 196 kts | 315° |
| 2026-05-05 13:34 | 51.42091 | 12.56198 | 3162 ft | 199 kts | 294° |
| 2026-05-05 13:35 | 51.42428 | 12.54049 | 3000 ft | 198 kts | 281° |
| 2026-05-05 13:35 | 51.42532 | 12.51885 | 2847 ft | 194 kts | 273° |
| 2026-05-05 13:35 | 51.42512 | 12.49753 | 2694 ft | 187 kts | 269° |
| 2026-05-05 13:35 | 51.42435 | 12.47717 | 2527 ft | 179 kts | 268° |
| 2026-05-05 13:36 | 51.42340 | 12.45758 | 2336 ft | 173 kts | 267° |
| 2026-05-05 13:36 | 51.42245 | 12.43878 | 2149 ft | 168 kts | 267° |
| 2026-05-05 13:36 | 51.42155 | 12.42018 | 1967 ft | 166 kts | 267° |
| 2026-05-05 13:36 | 51.42072 | 12.40220 | 1800 ft | 158 kts | 267° |
| 2026-05-05 13:37 | 51.41994 | 12.38499 | 1701 ft | 153 kts | 268° |
| 2026-05-05 13:37 | 51.41916 | 12.36799 | 1581 ft | 152 kts | 268° |
| 2026-05-05 13:37 | 51.41840 | 12.35123 | 1454 ft | 147 kts | 268° |
| 2026-05-05 13:37 | 51.41766 | 12.33502 | 1316 ft | 146 kts | 268° |
| 2026-05-05 13:38 | 51.41694 | 12.31902 | 1163 ft | 145 kts | 267° |
| 2026-05-05 13:38 | 51.41620 | 12.30289 | 1004 ft | 144 kts | 266° |
| 2026-05-05 13:38 | 51.41547 | 12.28707 | 846 ft | 140 kts | 266° |
| 2026-05-05 13:38 | 51.41475 | 12.27177 | 669 ft | 134 kts | 265° |
| 2026-05-05 13:39 | 51.41409 | 12.25753 | 521 ft | 124 kts | 265° |
| 2026-05-05 13:39 | 51.41350 | 12.24509 | 480 ft | 88 kts | 265° |
| 2026-05-05 13:39 | 51.41314 | 12.23735 | 480 ft | 66 kts | 265° |
| 2026-05-05 13:39 | 51.41282 | 12.23057 | 480 ft | 50 kts | 265° |
| 2026-05-05 13:40 | 51.41229 | 12.22654 | 480 ft | 27 kts | 235° |
| 2026-05-05 13:40 | 51.41129 | 12.22493 | 480 ft | 16 kts | 181° |
| 2026-05-05 13:40 | 51.41091 | 12.22584 | 480 ft | 9 kts | 84° |
| 2026-05-05 13:40 | 51.41096 | 12.22684 | 480 ft | 9 kts | 85° |
| 2026-05-05 13:41 | 51.41101 | 12.22780 | 480 ft | 9 kts | 85° |
| 2026-05-05 13:41 | 51.41105 | 12.22874 | 480 ft | 8 kts | 85° |
| 2026-05-05 13:41 | 51.41109 | 12.22964 | 480 ft | 8 kts | 85° |
| 2026-05-05 13:41 | 51.41113 | 12.23050 | 480 ft | 8 kts | 85° |
| 2026-05-05 13:42 | 51.41117 | 12.23135 | 480 ft | 7 kts | 85° |
| 2026-05-05 13:42 | 51.41123 | 12.23253 | 480 ft | 28 kts | 85° |
| 2026-05-05 13:42 | 51.41142 | 12.23667 | 480 ft | 38 kts | 85° |
| 2026-05-05 13:42 | 51.41162 | 12.24078 | 480 ft | 36 kts | 85° |
| 2026-05-05 13:43 | 51.41160 | 12.24375 | 480 ft | 17 kts | 127° |
| 2026-05-05 13:43 | 51.41092 | 12.24369 | 480 ft | 10 kts | 238° |
| 2026-05-05 13:43 | 51.41082 | 12.24269 | 480 ft | 9 kts | 265° |
| 2026-05-05 13:43 | 51.41056 | 12.24210 | 480 ft | 6 kts | 195° |
| 2026-05-05 13:44 | 51.41024 | 12.24213 | 480 ft | 5 kts | 175° |
| 2026-05-05 13:44 | 51.40992 | 12.24217 | 480 ft | 5 kts | 175° |
| 2026-05-05 13:44 | 51.40960 | 12.24222 | 480 ft | 5 kts | 174° |
| 2026-05-05 13:44 | 51.40929 | 12.24226 | 480 ft | 5 kts | 176° |
| 2026-05-05 13:45 | 51.40897 | 12.24229 | 480 ft | 5 kts | 176° |
| 2026-05-05 13:45 | 51.40865 | 12.24233 | 480 ft | 5 kts | 176° |
| 2026-05-05 13:45 | 51.40836 | 12.24240 | 480 ft | 3 kts | 156° |
| 2026-05-05 13:45 | 51.40827 | 12.24264 | 480 ft | 2 kts | 98° |
| 2026-05-05 13:46 | 51.40828 | 12.24291 | 480 ft | 2 kts | 86° |
| 2026-05-05 13:46 | 51.40830 | 12.24317 | 480 ft | 2 kts | 86° |
| 2026-05-05 13:46 | 51.40831 | 12.24343 | 480 ft | 2 kts | 86° |
| 2026-05-05 13:46 | 51.40831 | 12.24347 | 480 ft | 0 kts | 86° |